Time;durP1;ratioP1;P1;durP2;ratioP2;P2;SDS_P1;SDS_P2;PMS_P1;PMS_P2;Temp;Humidity;BMP_temperature;BMP_pressure;BME280_temperature;BME280_humidity;BME280_pressure;Samples;Min_cycle;Max_cycle;Signal;HPM_P1;HPM_P2
2023/01/02 00:00:04;;;;;;;13.25;6.60;;;;;;;;;;5087901;28;20032;-75
2023/01/02 00:02:30;;;;;;;13.82;5.10;;;;;;;;;;5084587;28;20032;-76
2023/01/02 00:04:56;;;;;;;13.25;5.95;;;;;;;;;;5082986;28;20035;-75
2023/01/02 00:07:22;;;;;;;18.40;7.50;;;;;;;;;;5089228;28;20040;-75
2023/01/02 00:09:48;;;;;;;20.02;10.65;;;;;;;;;;5085879;28;20063;-75
2023/01/02 00:12:14;;;;;;;12.57;7.60;;;;;;;;;;5088812;28;20043;-76
2023/01/02 00:14:40;;;;;;;14.70;6.00;;;;;;;;;;5083018;28;20167;-75
2023/01/02 00:17:06;;;;;;;14.35;6.65;;;;;;;;;;5080100;28;20041;-75
2023/01/02 00:19:32;;;;;;;15.13;7.05;;;;;;;;;;5088687;28;20616;-75
2023/01/02 00:21:58;;;;;;;14.88;7.18;;;;;;;;;;5085503;28;20056;-75
2023/01/02 00:24:24;;;;;;;14.93;6.78;;;;;;;;;;5079204;28;20036;-75
2023/01/02 00:26:50;;;;;;;14.18;7.78;;;;;;;;;;5067518;28;20031;-75
2023/01/02 00:29:16;;;;;;;13.20;7.13;;;;;;;;;;5088296;28;20158;-75
2023/01/02 00:31:42;;;;;;;10.65;5.95;;;;;;;;;;5080474;28;20032;-76
2023/01/02 00:34:08;;;;;;;13.93;7.85;;;;;;;;;;5066628;28;20056;-75
2023/01/02 00:36:34;;;;;;;24.88;13.20;;;;;;;;;;5079836;28;20651;-75
2023/01/02 00:39:00;;;;;;;20.85;12.25;;;;;;;;;;5088872;28;20063;-76
2023/01/02 00:41:26;;;;;;;25.92;14.07;;;;;;;;;;5086032;28;20793;-76
2023/01/02 00:43:52;;;;;;;21.75;11.98;;;;;;;;;;5077900;28;20024;-76
2023/01/02 00:46:18;;;;;;;16.23;8.20;;;;;;;;;;5074135;28;20467;-75
2023/01/02 00:48:44;;;;;;;16.20;9.73;;;;;;;;;;5083791;28;20040;-75
2023/01/02 00:51:10;;;;;;;15.23;9.35;;;;;;;;;;5081185;28;20058;-75
2023/01/02 00:53:36;;;;;;;18.77;9.00;;;;;;;;;;5084187;28;20028;-75
2023/01/02 00:56:02;;;;;;;18.55;10.00;;;;;;;;;;5088479;28;20024;-75
2023/01/02 00:58:28;;;;;;;16.05;9.68;;;;;;;;;;5080869;28;20066;-76
2023/01/02 01:00:54;;;;;;;27.08;15.93;;;;;;;;;;5086857;28;20894;-75
2023/01/02 01:03:20;;;;;;;25.55;16.35;;;;;;;;;;5086967;28;20050;-75
2023/01/02 01:05:46;;;;;;;25.52;13.50;;;;;;;;;;5086675;28;20077;-76
2023/01/02 01:08:13;;;;;;;20.23;12.98;;;;;;;;;;5083262;28;20028;-75
2023/01/02 01:10:39;;;;;;;21.13;10.80;;;;;;;;;;5073653;28;20049;-75
2023/01/02 01:13:05;;;;;;;18.45;10.38;;;;;;;;;;5078935;28;20028;-75
2023/01/02 01:15:32;;;;;;;16.58;9.10;;;;;;;;;;5088375;28;20044;-76
2023/01/02 01:17:58;;;;;;;16.17;9.30;;;;;;;;;;5079572;28;20036;-75
2023/01/02 01:20:24;;;;;;;14.38;8.30;;;;;;;;;;5074095;28;20490;-75
2023/01/02 01:22:50;;;;;;;16.55;8.82;;;;;;;;;;5075007;28;20028;-75
2023/01/02 01:25:16;;;;;;;19.67;10.88;;;;;;;;;;5063492;28;20048;-75
2023/01/02 01:27:42;;;;;;;18.58;9.55;;;;;;;;;;5079518;28;20074;-75
2023/01/02 01:30:08;;;;;;;16.08;8.98;;;;;;;;;;5066717;28;20447;-75
2023/01/02 01:32:34;;;;;;;19.00;10.95;;;;;;;;;;5084977;28;20027;-75
2023/01/02 01:35:00;;;;;;;18.13;10.65;;;;;;;;;;5088024;28;20469;-75
2023/01/02 01:37:26;;;;;;;19.30;9.63;;;;;;;;;;5083879;28;20420;-75
2023/01/02 01:39:52;;;;;;;16.30;8.70;;;;;;;;;;5081826;28;20055;-75
2023/01/02 01:42:18;;;;;;;16.00;9.57;;;;;;;;;;5085459;28;20028;-76
2023/01/02 01:44:45;;;;;;;18.63;10.00;;;;;;;;;;5084552;28;20078;-75
2023/01/02 01:47:30;;;;;;;18.75;10.40;;;;;;;;;;5080934;28;20040;-75
2023/01/02 01:50:02;;;;;;;18.52;10.10;;;;;;;;;;5081234;28;20086;-76
2023/01/02 01:52:30;;;;;;;18.75;9.45;;;;;;;;;;5079017;28;20024;-75
2023/01/02 01:55:02;;;;;;;17.42;8.65;;;;;;;;;;5083238;28;20032;-76
2023/01/02 01:57:33;;;;;;;13.93;8.30;;;;;;;;;;5085511;28;20133;-75
2023/01/02 02:00:00;;;;;;;14.63;7.78;;;;;;;;;;5085175;28;20036;-76
2023/01/02 02:02:27;;;;;;;14.38;7.78;;;;;;;;;;5079029;28;20355;-75
2023/01/02 02:04:53;;;;;;;16.70;8.25;;;;;;;;;;5081905;28;20063;-75
2023/01/02 02:07:19;;;;;;;18.15;8.60;;;;;;;;;;5086448;28;20117;-76
2023/01/02 02:09:51;;;;;;;35.58;20.88;;;;;;;;;;5077640;28;20486;-76
2023/01/02 02:12:17;;;;;;;32.40;19.00;;;;;;;;;;5084199;28;20114;-75
2023/01/02 02:14:43;;;;;;;26.50;15.88;;;;;;;;;;5083704;28;20036;-75
2023/01/02 02:17:09;;;;;;;26.35;16.27;;;;;;;;;;5084737;28;20117;-75
2023/01/02 02:19:54;;;;;;;29.52;16.40;;;;;;;;;;5085008;28;20153;-75
2023/01/02 02:22:39;;;;;;;25.77;13.75;;;;;;;;;;5078646;28;20047;-76
2023/01/02 02:25:05;;;;;;;25.17;12.45;;;;;;;;;;5080717;28;20093;-76
2023/01/02 02:27:31;;;;;;;17.33;9.45;;;;;;;;;;5086287;28;20032;-76
2023/01/02 02:29:57;;;;;;;20.17;10.52;;;;;;;;;;5079964;28;20036;-75
2023/01/02 02:32:25;;;;;;;18.88;8.30;;;;;;;;;;5082778;28;20086;-76
2023/01/02 02:35:10;;;;;;;18.92;9.15;;;;;;;;;;5081542;28;20057;-75
2023/01/02 02:37:36;;;;;;;19.35;10.98;;;;;;;;;;5084713;28;20137;-75
2023/01/02 02:40:22;;;;;;;19.65;11.38;;;;;;;;;;5085668;28;20498;-75
2023/01/02 02:43:03;;;;;;;20.63;12.73;;;;;;;;;;5077605;28;20043;-76
2023/01/02 02:45:48;;;;;;;23.23;13.48;;;;;;;;;;5077112;28;20032;-75
2023/01/02 02:48:27;;;;;;;28.08;15.05;;;;;;;;;;5076363;28;20112;-75
2023/01/02 02:51:00;;;;;;;25.42;13.90;;;;;;;;;;5077916;28;20032;-75
2023/01/02 02:53:29;;;;;;;22.25;11.77;;;;;;;;;;5080878;28;20024;-75
2023/01/02 02:55:57;;;;;;;19.98;10.40;;;;;;;;;;5081713;28;20055;-75
2023/01/02 02:58:24;;;;;;;21.38;10.85;;;;;;;;;;5083042;28;20784;-76
2023/01/02 03:00:50;;;;;;;18.55;10.20;;;;;;;;;;5083164;28;20374;-75
2023/01/02 03:03:21;;;;;;;21.85;10.30;;;;;;;;;;5081928;28;20028;-75
2023/01/02 03:06:07;;;;;;;20.27;11.30;;;;;;;;;;5077390;28;20044;-75
2023/01/02 03:08:46;;;;;;;14.27;7.28;;;;;;;;;;5030265;28;20048;-76
2023/01/02 03:11:13;;;;;;;13.98;7.43;;;;;;;;;;5083238;28;20040;-76
2023/01/02 03:13:43;;;;;;;14.57;7.00;;;;;;;;;;5089537;28;20040;-76
2023/01/02 03:16:17;;;;;;;14.77;7.63;;;;;;;;;;5079877;28;20027;-75
2023/01/02 03:18:49;;;;;;;14.82;6.82;;;;;;;;;;5089493;28;20089;-75
2023/01/02 03:21:18;;;;;;;15.57;8.20;;;;;;;;;;5080125;28;20040;-75
2023/01/02 03:23:46;;;;;;;17.48;8.32;;;;;;;;;;5088404;28;20065;-75
2023/01/02 03:26:14;;;;;;;15.98;6.80;;;;;;;;;;5087735;28;20036;-76
2023/01/02 03:28:42;;;;;;;12.18;5.78;;;;;;;;;;5065498;28;20036;-75
2023/01/02 03:31:09;;;;;;;16.83;5.47;;;;;;;;;;5085801;28;20103;-75
2023/01/02 03:33:37;;;;;;;15.48;5.32;;;;;;;;;;5090905;28;20028;-75
2023/01/02 03:36:06;;;;;;;10.38;5.75;;;;;;;;;;5075987;28;20075;-75
2023/01/02 03:38:44;;;;;;;10.85;5.18;;;;;;;;;;5089762;28;20028;-76
2023/01/02 03:41:24;;;;;;;15.30;4.88;;;;;;;;;;5085089;28;20139;-75
2023/01/02 03:43:51;;;;;;;12.68;5.85;;;;;;;;;;5081237;28;20039;-75
2023/01/02 03:46:26;;;;;;;11.88;5.70;;;;;;;;;;5085826;28;20024;-75
2023/01/02 03:49:05;;;;;;;15.27;5.60;;;;;;;;;;5075839;28;20052;-75
2023/01/02 03:51:32;;;;;;;8.88;4.40;;;;;;;;;;5084740;28;20031;-75
2023/01/02 03:53:59;;;;;;;7.55;3.83;;;;;;;;;;5086753;28;20051;-75
2023/01/02 03:56:37;;;;;;;11.70;5.22;;;;;;;;;;5086475;28;20020;-75
2023/01/02 03:59:03;;;;;;;18.30;4.78;;;;;;;;;;5077281;28;20436;-76
2023/01/02 04:01:32;;;;;;;10.75;3.63;;;;;;;;;;5088180;28;20046;-76
2023/01/02 04:04:18;;;;;;;13.48;3.83;;;;;;;;;;5083682;28;20032;-75
2023/01/02 04:06:48;;;;;;;8.73;3.50;;;;;;;;;;5085719;28;20097;-76
2023/01/02 04:09:18;;;;;;;7.95;3.40;;;;;;;;;;5084439;28;20482;-76
2023/01/02 04:11:46;;;;;;;9.52;3.08;;;;;;;;;;5082163;28;20059;-75
2023/01/02 04:14:20;;;;;;;10.40;3.58;;;;;;;;;;5084351;28;20047;-75
2023/01/02 04:16:48;;;;;;;12.23;3.55;;;;;;;;;;5085987;28;20059;-75
2023/01/02 04:19:18;;;;;;;9.35;3.72;;;;;;;;;;5088353;28;20078;-75
2023/01/02 04:21:45;;;;;;;13.25;4.88;;;;;;;;;;5088213;28;20028;-75
2023/01/02 04:24:13;;;;;;;9.82;4.10;;;;;;;;;;5086870;28;20064;-75
2023/01/02 04:26:44;;;;;;;9.63;4.00;;;;;;;;;;5087950;28;20478;-76
2023/01/02 04:29:11;;;;;;;17.02;7.05;;;;;;;;;;5087010;28;20455;-75
2023/01/02 04:31:56;;;;;;;19.10;7.30;;;;;;;;;;5086822;28;20023;-75
2023/01/02 04:34:23;;;;;;;14.73;5.85;;;;;;;;;;5080029;28;20070;-75
2023/01/02 04:36:49;;;;;;;11.45;4.13;;;;;;;;;;5082018;28;20103;-75
2023/01/02 04:39:17;;;;;;;14.48;5.60;;;;;;;;;;5087691;28;20413;-75
2023/01/02 04:41:42;;;;;;;12.77;6.53;;;;;;;;;;5087786;28;20032;-75
2023/01/02 04:44:08;;;;;;;16.15;7.53;;;;;;;;;;5076868;28;20036;-75
2023/01/02 04:46:34;;;;;;;15.55;7.28;;;;;;;;;;5080206;28;20119;-75
2023/01/02 04:49:00;;;;;;;13.07;5.43;;;;;;;;;;5089000;28;20044;-75
2023/01/02 04:51:26;;;;;;;13.50;6.05;;;;;;;;;;5087391;28;20054;-75
2023/01/02 04:53:53;;;;;;;10.05;4.65;;;;;;;;;;5087539;28;20028;-75
2023/01/02 04:56:19;;;;;;;15.52;5.35;;;;;;;;;;5088178;28;20043;-75
2023/01/02 04:58:46;;;;;;;8.50;3.83;;;;;;;;;;5077689;28;20097;-76
2023/01/02 05:01:13;;;;;;;8.48;3.95;;;;;;;;;;5075862;28;20020;-75
2023/01/02 05:03:39;;;;;;;9.25;4.30;;;;;;;;;;5088063;28;20356;-75
2023/01/02 05:06:06;;;;;;;12.23;4.00;;;;;;;;;;5089231;28;20028;-75
2023/01/02 05:08:32;;;;;;;7.00;2.92;;;;;;;;;;5084977;28;20028;-76
2023/01/02 05:11:04;;;;;;;10.15;3.95;;;;;;;;;;5087041;28;20050;-75
2023/01/02 05:13:30;;;;;;;11.60;3.67;;;;;;;;;;5084149;28;20166;-75
2023/01/02 05:15:56;;;;;;;14.43;5.75;;;;;;;;;;5088130;28;20812;-76
2023/01/02 05:18:22;;;;;;;11.23;5.40;;;;;;;;;;5085882;28;20042;-75
2023/01/02 05:20:48;;;;;;;12.07;4.97;;;;;;;;;;5083240;28;20044;-75
2023/01/02 05:25:59;;;;;;;19.73;8.27;;;;;;;;;;5088317;28;20051;-75
2023/01/02 05:28:25;;;;;;;16.27;5.97;;;;;;;;;;5087284;28;20103;-75
2023/01/02 05:30:51;;;;;;;12.70;5.35;;;;;;;;;;5087386;28;20153;-75
2023/01/02 05:33:17;;;;;;;12.48;5.50;;;;;;;;;;5087972;28;20716;-75
2023/01/02 05:35:43;;;;;;;11.68;4.90;;;;;;;;;;5077374;28;20148;-75
2023/01/02 05:38:09;;;;;;;12.75;4.53;;;;;;;;;;5080847;28;20530;-75
2023/01/02 05:40:35;;;;;;;10.65;3.70;;;;;;;;;;5082283;28;20032;-76
2023/01/02 05:43:01;;;;;;;15.25;5.55;;;;;;;;;;5081450;28;20077;-75
2023/01/02 05:45:27;;;;;;;8.38;5.13;;;;;;;;;;5085254;28;20048;-76
2023/01/02 05:47:53;;;;;;;10.90;4.65;;;;;;;;;;5080113;28;20039;-75
2023/01/02 05:50:19;;;;;;;10.85;5.05;;;;;;;;;;5085171;28;20036;-75
2023/01/02 05:52:45;;;;;;;10.60;4.32;;;;;;;;;;5062062;28;20039;-75
2023/01/02 05:55:11;;;;;;;10.10;4.00;;;;;;;;;;5081853;28;20066;-76
2023/01/02 05:57:37;;;;;;;15.52;5.43;;;;;;;;;;5081936;28;20055;-75
2023/01/02 06:00:03;;;;;;;11.02;4.55;;;;;;;;;;5059612;28;20047;-75
2023/01/02 06:02:29;;;;;;;8.50;4.18;;;;;;;;;;5076189;28;20024;-76
2023/01/02 06:04:55;;;;;;;10.82;5.45;;;;;;;;;;5083550;28;20131;-75
2023/01/02 06:07:21;;;;;;;11.88;3.75;;;;;;;;;;5087158;28;20119;-75
2023/01/02 06:09:47;;;;;;;9.23;4.60;;;;;;;;;;5083016;28;20031;-75
2023/01/02 06:12:13;;;;;;;11.32;4.40;;;;;;;;;;5086040;28;20031;-75
2023/01/02 06:14:39;;;;;;;22.20;10.70;;;;;;;;;;5078139;28;20039;-75
2023/01/02 06:17:05;;;;;;;28.27;13.60;;;;;;;;;;5077694;28;20028;-75
2023/01/02 06:19:31;;;;;;;17.92;9.48;;;;;;;;;;5079993;28;20044;-75
2023/01/02 06:21:57;;;;;;;14.25;6.63;;;;;;;;;;5080588;28;20031;-76
2023/01/02 06:24:23;;;;;;;11.90;5.10;;;;;;;;;;5085233;28;20531;-75
2023/01/02 06:26:49;;;;;;;10.40;4.07;;;;;;;;;;5080603;28;20050;-75
2023/01/02 06:29:15;;;;;;;12.65;6.32;;;;;;;;;;5085676;28;20093;-75
2023/01/02 06:31:41;;;;;;;12.00;5.80;;;;;;;;;;5081193;28;20107;-75
2023/01/02 06:34:09;;;;;;;10.60;4.63;;;;;;;;;;5076836;28;20036;-75
2023/01/02 06:36:35;;;;;;;12.63;5.47;;;;;;;;;;5079769;28;20107;-75
2023/01/02 06:39:01;;;;;;;12.10;4.63;;;;;;;;;;5083991;28;20131;-75
2023/01/02 06:41:27;;;;;;;12.63;4.78;;;;;;;;;;5081329;28;20027;-76
2023/01/02 06:43:53;;;;;;;16.40;4.57;;;;;;;;;;5062121;28;20023;-75
2023/01/02 06:46:21;;;;;;;13.50;4.25;;;;;;;;;;5081467;28;20032;-75
2023/01/02 06:48:47;;;;;;;13.15;6.28;;;;;;;;;;5082516;28;20060;-75
2023/01/02 06:51:17;;;;;;;14.25;6.15;;;;;;;;;;5083113;28;20020;-75
2023/01/02 06:53:44;;;;;;;12.43;4.20;;;;;;;;;;5083189;28;20047;-75
2023/01/02 06:56:10;;;;;;;8.60;3.92;;;;;;;;;;5079299;28;20024;-75
2023/01/02 06:58:37;;;;;;;15.00;5.43;;;;;;;;;;5083696;28;20060;-75
2023/01/02 07:01:03;;;;;;;13.25;5.05;;;;;;;;;;5085057;28;20040;-75
2023/01/02 07:03:29;;;;;;;14.60;4.38;;;;;;;;;;5080513;28;20036;-75
2023/01/02 07:05:59;;;;;;;10.52;4.25;;;;;;;;;;5084925;28;20036;-75
2023/01/02 07:08:25;;;;;;;9.30;3.25;;;;;;;;;;5079997;28;20032;-75
2023/01/02 07:10:51;;;;;;;10.07;3.40;;;;;;;;;;5080364;28;20025;-75
2023/01/02 07:13:17;;;;;;;10.02;4.40;;;;;;;;;;5078955;28;20032;-75
2023/01/02 07:15:43;;;;;;;10.15;3.95;;;;;;;;;;5082069;28;20107;-75
2023/01/02 07:18:09;;;;;;;12.68;3.95;;;;;;;;;;5064315;28;20073;-75
2023/01/02 07:20:35;;;;;;;9.48;4.53;;;;;;;;;;5079172;28;20090;-75
2023/01/02 07:23:01;;;;;;;20.23;7.88;;;;;;;;;;5083367;28;20037;-75
2023/01/02 07:25:27;;;;;;;18.92;10.95;;;;;;;;;;5084534;28;20663;-75
2023/01/02 07:27:53;;;;;;;20.20;10.32;;;;;;;;;;5060983;28;20035;-75
2023/01/02 07:30:19;;;;;;;17.15;7.70;;;;;;;;;;5081306;28;20032;-75
2023/01/02 07:32:45;;;;;;;20.50;10.88;;;;;;;;;;5085510;28;20028;-75
2023/01/02 07:35:11;;;;;;;23.13;11.85;;;;;;;;;;5079728;28;20123;-75
2023/01/02 07:37:37;;;;;;;28.13;14.68;;;;;;;;;;5079787;28;20028;-75
2023/01/02 07:40:03;;;;;;;31.08;15.82;;;;;;;;;;5081968;28;20478;-75
2023/01/02 07:42:29;;;;;;;28.08;13.82;;;;;;;;;;5082169;28;20059;-75
2023/01/02 07:44:55;;;;;;;33.17;15.55;;;;;;;;;;5083152;28;20391;-75
2023/01/02 07:47:21;;;;;;;26.40;12.70;;;;;;;;;;5084480;28;20036;-75
2023/01/02 07:49:47;;;;;;;23.75;11.38;;;;;;;;;;5083668;28;20032;-75
2023/01/02 07:52:13;;;;;;;26.05;11.43;;;;;;;;;;5080433;28;20062;-75
2023/01/02 07:54:39;;;;;;;24.67;12.40;;;;;;;;;;5089361;28;20035;-75
2023/01/02 07:57:05;;;;;;;21.92;12.50;;;;;;;;;;5087036;28;20089;-75
2023/01/02 07:59:31;;;;;;;22.75;12.15;;;;;;;;;;5088555;28;20032;-75
2023/01/02 08:01:57;;;;;;;31.73;13.40;;;;;;;;;;5086825;28;20035;-75
2023/01/02 08:04:23;;;;;;;25.73;13.52;;;;;;;;;;5080479;28;20588;-75
2023/01/02 08:06:49;;;;;;;27.33;13.90;;;;;;;;;;5081412;28;20042;-75
2023/01/02 08:09:15;;;;;;;30.25;15.43;;;;;;;;;;5089015;28;20742;-75
2023/01/02 08:11:41;;;;;;;30.23;16.83;;;;;;;;;;5088770;28;20807;-75
2023/01/02 08:14:07;;;;;;;35.78;19.02;;;;;;;;;;5082309;28;20055;-75
2023/01/02 08:16:32;;;;;;;33.83;17.95;;;;;;;;;;5086719;28;20468;-75
2023/01/02 08:18:58;;;;;;;35.63;16.80;;;;;;;;;;5078330;28;20039;-75
2023/01/02 08:21:25;;;;;;;28.65;15.07;;;;;;;;;;5083400;28;20475;-75
2023/01/02 08:23:51;;;;;;;28.90;14.25;;;;;;;;;;5080309;28;20479;-75
2023/01/02 08:26:19;;;;;;;37.90;14.90;;;;;;;;;;5082114;28;20036;-75
2023/01/02 08:28:45;;;;;;;25.73;13.13;;;;;;;;;;5085174;28;20035;-75
2023/01/02 08:31:12;;;;;;;27.13;13.02;;;;;;;;;;5088019;28;20036;-75
2023/01/02 08:33:39;;;;;;;26.95;11.88;;;;;;;;;;5086544;28;20094;-75
2023/01/02 08:36:05;;;;;;;27.38;13.38;;;;;;;;;;5084706;28;20044;-76
2023/01/02 08:38:31;;;;;;;24.63;11.82;;;;;;;;;;5063322;28;20042;-75
2023/01/02 08:40:58;;;;;;;20.15;10.00;;;;;;;;;;5086610;28;20043;-75
2023/01/02 08:43:24;;;;;;;19.38;10.52;;;;;;;;;;5083744;28;20077;-75
2023/01/02 08:45:50;;;;;;;22.63;10.75;;;;;;;;;;5086261;28;20032;-75
2023/01/02 08:48:16;;;;;;;20.92;12.25;;;;;;;;;;5087275;28;20476;-75
2023/01/02 08:50:42;;;;;;;26.08;13.30;;;;;;;;;;5087774;28;20070;-75
2023/01/02 08:53:08;;;;;;;26.40;13.95;;;;;;;;;;5081227;28;20060;-75
2023/01/02 08:55:34;;;;;;;24.33;12.52;;;;;;;;;;5083799;28;20063;-75
2023/01/02 08:58:00;;;;;;;23.00;11.57;;;;;;;;;;5084595;28;20670;-75
2023/01/02 09:00:26;;;;;;;22.23;10.95;;;;;;;;;;5082772;28;20464;-75
2023/01/02 09:02:52;;;;;;;20.77;9.55;;;;;;;;;;5069462;28;20107;-75
2023/01/02 09:05:18;;;;;;;18.27;9.68;;;;;;;;;;5084787;28;20044;-75
2023/01/02 09:07:44;;;;;;;20.45;9.07;;;;;;;;;;5087896;28;20059;-75
2023/01/02 09:10:10;;;;;;;15.43;5.10;;;;;;;;;;5083356;28;20028;-75
2023/01/02 09:12:36;;;;;;;11.50;5.30;;;;;;;;;;5081076;28;20082;-75
2023/01/02 09:15:03;;;;;;;16.77;8.07;;;;;;;;;;5086433;28;20042;-75
2023/01/02 09:17:29;;;;;;;15.45;8.27;;;;;;;;;;5086717;28;20028;-75
2023/01/02 09:19:55;;;;;;;20.90;12.00;;;;;;;;;;5081932;28;20028;-73
2023/01/02 09:22:21;;;;;;;16.52;9.45;;;;;;;;;;5081629;28;20398;-74
2023/01/02 09:24:47;;;;;;;23.15;12.35;;;;;;;;;;5076883;28;20124;-76
2023/01/02 09:27:14;;;;;;;15.48;6.20;;;;;;;;;;5083051;28;20024;-74
2023/01/02 09:29:40;;;;;;;11.15;4.95;;;;;;;;;;5082284;28;20050;-74
2023/01/02 09:32:05;;;;;;;13.10;5.30;;;;;;;;;;5084510;28;20035;-73
2023/01/02 09:34:32;;;;;;;10.23;4.97;;;;;;;;;;5080533;28;20048;-73
2023/01/02 09:36:58;;;;;;;15.85;5.82;;;;;;;;;;5086283;28;20028;-74
2023/01/02 09:39:24;;;;;;;15.20;6.78;;;;;;;;;;5084155;28;20116;-74
2023/01/02 09:41:51;;;;;;;16.48;9.00;;;;;;;;;;5081404;28;20169;-73
2023/01/02 09:44:17;;;;;;;22.75;11.65;;;;;;;;;;5081111;28;20118;-74
2023/01/02 09:46:49;;;;;;;18.63;9.00;;;;;;;;;;5083977;28;20110;-74
2023/01/02 09:49:16;;;;;;;16.08;6.05;;;;;;;;;;5078442;28;20446;-74
2023/01/02 09:51:43;;;;;;;11.95;5.03;;;;;;;;;;5086316;28;20387;-74
2023/01/02 09:54:18;;;;;;;10.52;5.22;;;;;;;;;;5066748;28;20335;-74
2023/01/02 09:56:47;;;;;;;8.70;4.32;;;;;;;;;;5082590;28;20036;-74
2023/01/02 09:59:39;;;;;;;14.80;5.60;;;;;;;;;;5084119;28;20047;-74
2023/01/02 10:02:05;;;;;;;16.92;8.02;;;;;;;;;;5076652;28;20126;-74
2023/01/02 10:05:03;;;;;;;11.07;4.72;;;;;;;;;;5081719;28;20072;-74
2023/01/02 10:07:38;;;;;;;11.07;4.85;;;;;;;;;;5038844;28;20052;-74
2023/01/02 10:10:19;;;;;;;13.25;5.18;;;;;;;;;;5082633;28;20110;-74
2023/01/02 10:12:54;;;;;;;12.60;5.82;;;;;;;;;;5080299;28;20036;-74
2023/01/02 10:15:24;;;;;;;13.00;5.57;;;;;;;;;;5071806;28;20036;-74
2023/01/02 10:17:51;;;;;;;16.42;5.80;;;;;;;;;;5074873;28;20059;-74
2023/01/02 10:20:20;;;;;;;16.60;8.20;;;;;;;;;;5079752;28;20768;-74
2023/01/02 10:22:49;;;;;;;15.05;7.68;;;;;;;;;;5081415;28;20034;-74
2023/01/02 10:25:33;;;;;;;17.58;9.15;;;;;;;;;;5081488;28;20081;-74
2023/01/02 10:27:58;;;;;;;22.52;9.15;;;;;;;;;;5080974;28;20067;-74
2023/01/02 10:30:26;;;;;;;17.58;9.63;;;;;;;;;;5084778;28;20193;-74
2023/01/02 10:33:01;;;;;;;15.38;7.82;;;;;;;;;;5084319;28;20035;-74
2023/01/02 10:35:33;;;;;;;12.95;5.57;;;;;;;;;;5079092;28;20060;-74
2023/01/02 10:37:59;;;;;;;13.52;6.15;;;;;;;;;;5077640;28;20036;-74
2023/01/02 10:40:25;;;;;;;10.77;5.78;;;;;;;;;;5075727;28;20036;-74
2023/01/02 10:42:55;;;;;;;11.55;5.57;;;;;;;;;;5073247;28;20058;-74
2023/01/02 10:45:22;;;;;;;15.50;6.68;;;;;;;;;;5081340;28;20024;-74
2023/01/02 10:47:48;;;;;;;13.50;7.40;;;;;;;;;;5075712;28;20055;-74
2023/01/02 10:50:37;;;;;;;23.67;11.90;;;;;;;;;;5081076;28;20063;-74
2023/01/02 10:53:23;;;;;;;22.88;13.35;;;;;;;;;;5081461;28;20028;-74
2023/01/02 10:55:49;;;;;;;38.50;20.85;;;;;;;;;;5025048;28;20578;-74
2023/01/02 10:58:19;;;;;;;33.75;16.75;;;;;;;;;;5083153;28;20036;-74
2023/01/02 11:00:46;;;;;;;25.45;12.73;;;;;;;;;;5062800;28;20481;-74
2023/01/02 11:03:12;;;;;;;23.88;11.38;;;;;;;;;;5077995;28;20036;-74
2023/01/02 11:05:43;;;;;;;13.00;6.60;;;;;;;;;;5075029;28;20062;-74
2023/01/02 11:08:12;;;;;;;14.32;6.63;;;;;;;;;;5080467;28;20043;-74
2023/01/02 11:10:38;;;;;;;19.35;8.73;;;;;;;;;;5081445;28;20134;-74
2023/01/02 11:13:09;;;;;;;16.25;7.93;;;;;;;;;;5078858;28;20178;-74
2023/01/02 11:15:42;;;;;;;12.00;6.57;;;;;;;;;;5078421;28;20028;-74
2023/01/02 11:18:11;;;;;;;15.05;5.43;;;;;;;;;;5079449;28;20043;-74
2023/01/02 11:20:37;;;;;;;14.07;6.45;;;;;;;;;;5079467;28;20053;-74
2023/01/02 11:23:04;;;;;;;29.35;15.32;;;;;;;;;;5080700;28;20578;-75
2023/01/02 11:25:38;;;;;;;25.10;13.93;;;;;;;;;;5079802;28;20044;-74
2023/01/02 11:28:04;;;;;;;25.88;12.40;;;;;;;;;;5085024;28;20562;-74
2023/01/02 11:30:30;;;;;;;15.43;7.90;;;;;;;;;;5086010;28;20731;-74
2023/01/02 11:33:05;;;;;;;18.15;9.75;;;;;;;;;;5080424;28;20025;-75
2023/01/02 11:35:34;;;;;;;21.00;8.35;;;;;;;;;;5086277;28;20425;-74
2023/01/02 11:38:01;;;;;;;17.17;6.68;;;;;;;;;;5085348;28;20047;-74
2023/01/02 11:40:29;;;;;;;16.45;6.53;;;;;;;;;;5085135;28;20483;-74
2023/01/02 11:45:42;;;;;;;10.75;4.28;;;;;;;;;;5081713;28;20086;-74
2023/01/02 11:48:14;;;;;;;13.13;5.05;;;;;;;;;;5084387;28;20033;-74
2023/01/02 11:50:42;;;;;;;12.57;3.28;;;;;;;;;;5086968;28;20039;-74
2023/01/02 11:53:08;;;;;;;12.13;4.55;;;;;;;;;;5088452;28;20844;-74
2023/01/02 11:55:41;;;;;;;12.13;3.78;;;;;;;;;;5086243;28;20039;-74
2023/01/02 11:58:23;;;;;;;10.68;3.90;;;;;;;;;;5081857;28;20050;-74
2023/01/02 12:00:50;;;;;;;9.70;3.95;;;;;;;;;;5082075;28;20104;-75
2023/01/02 12:03:21;;;;;;;10.15;4.18;;;;;;;;;;5084156;28;20036;-74
2023/01/02 12:05:56;;;;;;;14.27;5.53;;;;;;;;;;5083504;28;20024;-74
2023/01/02 12:08:22;;;;;;;18.02;5.28;;;;;;;;;;5082898;28;20050;-74
2023/01/02 12:10:57;;;;;;;13.23;5.35;;;;;;;;;;5085508;28;20028;-74
2023/01/02 12:13:43;;;;;;;14.85;5.22;;;;;;;;;;5085821;28;20035;-74
2023/01/02 12:16:29;;;;;;;14.13;4.10;;;;;;;;;;5079497;28;20031;-74
2023/01/02 12:19:01;;;;;;;20.38;7.03;;;;;;;;;;5081223;28;21031;-74
2023/01/02 12:21:27;;;;;;;;;;;;;;;;;;5085423;28;20051;-74
2023/01/02 12:23:53;;;;;;;17.88;5.38;;;;;;;;;;5077159;28;20259;-74
2023/01/02 12:26:28;;;;;;;9.88;3.85;;;;;;;;;;5084088;28;20054;-74
2023/01/02 12:28:57;;;;;;;15.20;6.57;;;;;;;;;;5084165;28;20657;-74
2023/01/02 12:31:29;;;;;;;16.45;6.95;;;;;;;;;;5078469;28;20032;-74
2023/01/02 12:34:06;;;;;;;15.00;3.65;;;;;;;;;;5082055;28;20034;-74
2023/01/02 12:36:38;;;;;;;13.88;3.03;;;;;;;;;;5085008;28;20028;-74
2023/01/02 12:39:16;;;;;;;11.38;2.30;;;;;;;;;;5082542;28;20036;-74
2023/01/02 12:41:51;;;;;;;9.88;2.28;;;;;;;;;;5074071;28;20024;-74
2023/01/02 12:44:36;;;;;;;9.73;1.85;;;;;;;;;;5080181;28;20043;-74
2023/01/02 12:47:09;;;;;;;15.18;2.92;;;;;;;;;;5083891;28;20126;-74
2023/01/02 12:49:47;;;;;;;10.82;1.77;;;;;;;;;;5081724;28;20559;-74
2023/01/02 12:52:28;;;;;;;13.80;2.60;;;;;;;;;;5083376;28;20107;-74
2023/01/02 12:54:58;;;;;;;16.27;2.47;;;;;;;;;;5084935;28;20467;-74
2023/01/02 12:57:42;;;;;;;9.52;2.03;;;;;;;;;;5083213;28;20024;-74
2023/01/02 13:00:08;;;;;;;12.75;2.00;;;;;;;;;;5084494;28;20035;-74
2023/01/02 13:02:40;;;;;;;19.58;3.05;;;;;;;;;;5077181;28;20467;-74
2023/01/02 13:05:24;;;;;;;14.85;2.35;;;;;;;;;;5084075;28;20060;-74
2023/01/02 13:07:52;;;;;;;17.08;2.75;;;;;;;;;;5078655;28;20032;-74
2023/01/02 13:10:20;;;;;;;15.93;2.75;;;;;;;;;;5080111;28;20028;-75
2023/01/02 13:12:46;;;;;;;9.35;2.15;;;;;;;;;;5081223;28;20028;-75
2023/01/02 13:15:23;;;;;;;13.05;2.53;;;;;;;;;;5082716;28;20047;-74
2023/01/02 13:17:49;;;;;;;12.05;1.92;;;;;;;;;;5080648;28;20070;-74
2023/01/02 13:20:18;;;;;;;12.80;3.17;;;;;;;;;;5080237;28;20079;-74
2023/01/02 13:22:44;;;;;;;17.85;4.65;;;;;;;;;;5078167;28;20103;-74
2023/01/02 13:25:15;;;;;;;17.35;2.80;;;;;;;;;;5083179;28;20127;-74
2023/01/02 13:27:42;;;;;;;12.30;2.38;;;;;;;;;;5082435;28;20019;-74
2023/01/02 13:30:28;;;;;;;10.48;2.55;;;;;;;;;;5082705;28;20482;-74
2023/01/02 13:32:56;;;;;;;13.00;2.95;;;;;;;;;;5083286;28;20041;-74
2023/01/02 13:35:22;;;;;;;15.50;3.17;;;;;;;;;;5081951;28;20139;-74
2023/01/02 13:37:50;;;;;;;19.08;3.20;;;;;;;;;;5078705;28;20070;-74
2023/01/02 13:40:25;;;;;;;17.23;3.88;;;;;;;;;;5083394;28;20043;-74
2023/01/02 13:42:59;;;;;;;18.38;3.00;;;;;;;;;;5083652;28;20032;-74
2023/01/02 13:45:30;;;;;;;13.85;3.15;;;;;;;;;;5081438;28;20032;-74
2023/01/02 13:47:58;;;;;;;11.35;2.40;;;;;;;;;;5084168;28;20024;-74
2023/01/02 13:50:31;;;;;;;15.82;2.20;;;;;;;;;;5078976;28;20028;-74
2023/01/02 13:53:06;;;;;;;15.52;2.22;;;;;;;;;;5077944;28;20108;-74
2023/01/02 13:55:34;;;;;;;15.85;3.03;;;;;;;;;;5083497;28;20548;-74
2023/01/02 13:58:12;;;;;;;10.73;2.95;;;;;;;;;;5080659;28;20141;-74
2023/01/02 14:00:39;;;;;;;12.43;2.55;;;;;;;;;;5083009;28;20028;-74
2023/01/02 14:03:33;;;;;;;13.77;2.65;;;;;;;;;;5081721;28;20032;-74
2023/01/02 14:06:04;;;;;;;14.43;2.38;;;;;;;;;;5080603;28;20066;-74
2023/01/02 14:08:41;;;;;;;13.20;2.50;;;;;;;;;;5083288;28;20168;-74
2023/01/02 14:11:09;;;;;;;10.20;2.25;;;;;;;;;;5078945;28;20124;-74
2023/01/02 14:13:42;;;;;;;12.05;2.42;;;;;;;;;;5075710;28;20144;-74
2023/01/02 14:16:11;;;;;;;19.58;2.42;;;;;;;;;;5079306;28;20054;-74
2023/01/02 14:18:37;;;;;;;16.73;2.42;;;;;;;;;;5082470;28;20526;-75
2023/01/02 14:21:03;;;;;;;15.52;2.55;;;;;;;;;;5083430;28;20051;-74
2023/01/02 14:23:33;;;;;;;12.48;2.78;;;;;;;;;;5083700;28;20810;-74
2023/01/02 14:25:59;;;;;;;11.57;2.47;;;;;;;;;;5081139;28;20131;-74
2023/01/02 14:28:27;;;;;;;14.80;2.65;;;;;;;;;;5079863;28;20543;-74
2023/01/02 14:30:54;;;;;;;12.52;2.80;;;;;;;;;;5082375;28;20076;-75
2023/01/02 14:33:32;;;;;;;11.32;2.03;;;;;;;;;;5080005;28;20124;-74
2023/01/02 14:36:02;;;;;;;14.27;2.42;;;;;;;;;;5082044;28;20197;-74
2023/01/02 14:38:30;;;;;;;11.48;2.67;;;;;;;;;;5062026;28;20032;-74
2023/01/02 14:43:41;;;;;;;16.08;3.35;;;;;;;;;;5082058;28;20097;-74
2023/01/02 14:46:11;;;;;;;19.15;3.03;;;;;;;;;;5083988;28;20113;-74